Time;durP1;ratioP1;P1;durP2;ratioP2;P2;SDS_P1;SDS_P2;PMS_P1;PMS_P2;Temp;Humidity;BMP_temperature;BMP_pressure;BME280_temperature;BME280_humidity;BME280_pressure;Samples;Min_cycle;Max_cycle;Signal;HPM_P1;HPM_P2
2021/05/07 00:00:45;;;;;;;2.05;0.60;;;;;;;12.75;51.66;98961.91;3524346;28;20035;-72
2021/05/07 00:02:26;;;;;;;1.92;0.85;;;;;;;12.75;51.77;98967.25;3524102;28;20031;-72
2021/05/07 00:04:07;;;;;;;0.50;0.50;;;;;;;12.73;51.64;98958.66;3524128;28;20457;-72
2021/05/07 00:05:56;;;;;;;0.88;0.63;;;;;;;12.71;51.76;98958.06;3524416;28;20048;-73
2021/05/07 00:07:36;;;;;;;2.00;0.95;;;;;;;12.68;51.91;98963.88;3522936;28;20055;-73
2021/05/07 00:09:27;;;;;;;0.77;0.77;;;;;;;12.60;51.88;98959.66;3523539;28;20493;-72
2021/05/07 00:11:11;;;;;;;1.60;0.60;;;;;;;12.54;52.05;98956.00;3524285;28;20044;-73
2021/05/07 00:12:52;;;;;;;1.48;0.60;;;;;;;12.60;51.96;98965.81;3524178;28;20052;-71
2021/05/07 00:14:32;;;;;;;1.00;0.80;;;;;;;12.63;52.11;98962.66;3522625;28;20063;-72
2021/05/07 00:16:14;;;;;;;1.88;0.80;;;;;;;12.64;52.02;98966.97;3524030;28;20278;-73
2021/05/07 00:17:55;;;;;;;4.75;0.88;;;;;;;12.69;51.89;98970.84;3524251;28;20040;-72
2021/05/07 00:19:35;;;;;;;1.85;1.05;;;;;;;12.74;52.01;98973.66;3524326;28;20413;-73
2021/05/07 00:21:16;;;;;;;2.08;0.90;;;;;;;12.74;51.99;98965.63;3524210;28;20510;-73
2021/05/07 00:22:56;;;;;;;1.55;0.82;;;;;;;12.76;51.93;98974.25;3524218;28;20044;-72
2021/05/07 00:24:37;;;;;;;2.15;1.95;;;;;;;12.79;51.97;98973.78;3524006;28;20510;-71
2021/05/07 00:26:18;;;;;;;1.10;0.95;;;;;;;12.73;51.79;98969.34;3524158;28;20039;-72
2021/05/07 00:28:03;;;;;;;2.27;0.70;;;;;;;12.64;52.11;98961.63;3524116;28;20119;-74
2021/05/07 00:29:46;;;;;;;9.18;1.25;;;;;;;12.56;52.12;98980.66;3524367;28;20768;-72
2021/05/07 00:31:26;;;;;;;2.35;0.68;;;;;;;12.55;52.22;98983.56;3524058;28;20570;-72
2021/05/07 00:33:23;;;;;;;3.33;1.23;;;;;;;12.47;52.32;98974.00;3523984;28;20047;-72
2021/05/07 00:35:14;;;;;;;1.33;0.93;;;;;;;12.48;52.27;98978.28;3524105;28;20496;-71
2021/05/07 00:36:55;;;;;;;0.85;0.75;;;;;;;12.49;52.40;98984.44;3523840;28;20043;-72
2021/05/07 00:38:35;;;;;;;0.70;0.70;;;;;;;12.47;52.41;98989.19;3522512;28;20040;-72
2021/05/07 00:40:17;;;;;;;1.02;0.80;;;;;;;12.40;52.42;98986.63;3524065;28;20062;-72
2021/05/07 00:42:09;;;;;;;0.88;0.88;;;;;;;12.40;52.51;98989.28;3522848;28;20534;-71
2021/05/07 00:43:53;;;;;;;0.93;0.77;;;;;;;12.39;52.67;98998.31;3521877;28;20092;-72
2021/05/07 00:45:34;;;;;;;1.02;0.90;;;;;;;12.38;52.81;98984.16;3522801;28;20066;-72
2021/05/07 00:47:16;;;;;;;2.05;0.68;;;;;;;12.43;52.85;98984.28;3523255;28;20071;-72
2021/05/07 00:48:57;;;;;;;1.23;0.90;;;;;;;12.43;52.65;98989.63;3523024;28;20043;-72
2021/05/07 00:50:39;;;;;;;2.88;0.90;;;;;;;12.37;52.52;98987.06;3520186;28;20525;-74
2021/05/07 00:52:20;;;;;;;0.75;0.75;;;;;;;12.44;52.68;98985.94;3520357;28;20039;-72
2021/05/07 00:54:01;;;;;;;3.30;0.88;;;;;;;12.51;52.61;98991.19;3520255;28;20126;-72
2021/05/07 00:55:41;;;;;;;0.82;0.70;;;;;;;12.56;52.58;98983.31;3524028;28;20036;-73
2021/05/07 00:57:26;;;;;;;2.97;1.20;;;;;;;12.64;52.38;98988.34;3523153;28;20082;-72
2021/05/07 00:59:07;;;;;;;4.65;1.35;;;;;;;12.64;52.38;98993.69;3520174;28;20047;-71
2021/05/07 01:00:49;;;;;;;3.78;1.10;;;;;;;12.60;52.35;98984.50;3523698;28;20087;-72
2021/05/07 01:02:30;;;;;;;;;;;;;;;12.68;52.16;98985.25;3522666;28;20047;-70
2021/05/07 01:04:10;;;;;;;0.90;0.90;;;;;;;12.50;52.06;98975.41;3523524;28;20366;-72
2021/05/07 01:05:51;;;;;;;0.75;0.75;;;;;;;12.50;52.16;98984.22;3523761;28;20528;-73
2021/05/07 01:07:33;;;;;;;1.20;0.70;;;;;;;12.45;52.33;98986.75;3525901;28;20150;-74
2021/05/07 01:09:14;;;;;;;0.70;0.70;;;;;;;12.39;52.32;98979.63;3511451;28;20493;-72
2021/05/07 01:10:56;;;;;;;1.48;0.80;;;;;;;12.37;52.50;98981.72;3523709;28;20036;-71
2021/05/07 01:12:38;;;;;;;0.82;0.70;;;;;;;12.32;52.53;98974.38;3525239;28;20586;-72
2021/05/07 01:14:18;;;;;;;0.93;0.82;;;;;;;12.30;52.40;98972.97;3522747;28;20090;-72
2021/05/07 01:15:59;;;;;;;2.65;0.80;;;;;;;12.29;52.50;98968.63;3522591;28;21841;-72
2021/05/07 01:17:48;;;;;;;1.95;0.80;;;;;;;12.28;52.51;98964.34;3526474;28;20048;-73
2021/05/07 01:19:29;;;;;;;1.38;0.80;;;;;;;12.30;52.49;98972.97;3525397;28;20383;-72
2021/05/07 01:21:10;;;;;;;2.65;0.85;;;;;;;12.25;52.31;98959.44;3526267;28;20066;-74
2021/05/07 01:23:04;;;;;;;1.45;0.80;;;;;;;12.27;52.41;98974.22;3526057;28;20035;-73
2021/05/07 01:24:45;;;;;;;2.40;1.00;;;;;;;12.15;52.45;98973.31;3526360;28;20398;-74
2021/05/07 01:26:26;;;;;;;1.40;0.90;;;;;;;12.04;52.63;98972.22;3525351;28;20472;-73
2021/05/07 01:28:09;;;;;;;2.22;0.90;;;;;;;11.97;52.90;98971.44;3525559;28;20070;-72
2021/05/07 01:29:50;;;;;;;1.35;0.90;;;;;;;12.00;52.91;98971.00;3523123;28;20616;-73
2021/05/07 01:31:30;;;;;;;1.00;0.77;;;;;;;12.03;52.82;98978.59;3526247;28;20039;-72
2021/05/07 01:33:13;;;;;;;2.22;0.80;;;;;;;12.00;52.95;98979.00;3525399;28;20031;-73
2021/05/07 01:34:55;;;;;;;1.77;0.82;;;;;;;12.02;52.87;98968.94;3524128;28;20054;-74
2021/05/07 01:36:37;;;;;;;3.25;1.20;;;;;;;12.02;52.97;98971.59;3527901;28;20061;-72
2021/05/07 01:38:18;;;;;;;2.85;1.02;;;;;;;12.09;52.60;98975.03;3527402;28;20518;-72
2021/05/07 01:39:59;;;;;;;0.93;0.93;;;;;;;12.10;52.72;98979.31;3527391;28;20047;-73
2021/05/07 01:41:40;;;;;;;1.20;0.90;;;;;;;12.09;52.67;98980.38;3527777;28;20874;-72
2021/05/07 01:43:21;;;;;;;0.88;0.80;;;;;;;12.07;52.90;98977.09;3525931;28;20047;-73
2021/05/07 01:45:07;;;;;;;1.20;1.10;;;;;;;12.07;52.56;98985.13;3511462;28;20051;-71
2021/05/07 01:46:52;;;;;;;2.53;1.17;;;;;;;12.03;52.67;98983.94;3526818;28;20043;-72
2021/05/07 01:48:33;;;;;;;2.10;0.82;;;;;;;11.98;52.97;98981.94;3528178;28;20062;-72
2021/05/07 01:50:16;;;;;;;4.72;2.78;;;;;;;12.02;53.04;98989.50;3525381;28;20039;-73
2021/05/07 01:51:57;;;;;;;2.25;1.50;;;;;;;12.03;52.86;98991.13;3522589;28;20043;-72
2021/05/07 01:53:38;;;;;;;1.10;1.00;;;;;;;12.02;53.00;98984.97;3522219;28;20047;-72
2021/05/07 01:55:21;;;;;;;1.15;1.02;;;;;;;12.00;53.05;98981.69;3525826;28;20047;-72
2021/05/07 01:57:02;;;;;;;2.65;0.98;;;;;;;11.97;53.07;98976.78;3525792;28;20036;-72
2021/05/07 01:58:43;;;;;;;2.03;1.20;;;;;;;11.99;52.80;98978.22;3525848;28;20042;-72
2021/05/07 02:00:26;;;;;;;2.57;1.20;;;;;;;11.99;53.11;98991.56;3524493;28;20039;-73
2021/05/07 02:02:07;;;;;;;3.35;0.90;;;;;;;12.01;52.98;98991.34;3525631;28;20281;-72
2021/05/07 02:03:48;;;;;;;1.17;0.95;;;;;;;12.01;52.96;99002.03;3525991;28;20086;-72
2021/05/07 02:05:34;;;;;;;1.35;1.25;;;;;;;12.02;53.02;99000.97;3524575;28;20043;-73
2021/05/07 02:07:18;;;;;;;4.70;1.20;;;;;;;12.02;52.94;99000.97;3525364;28;20063;-72
2021/05/07 02:08:59;;;;;;;2.65;1.25;;;;;;;12.04;53.04;99004.25;3524751;28;20050;-72
2021/05/07 02:10:40;;;;;;;1.42;1.20;;;;;;;12.10;53.00;99008.72;3524654;28;20040;-71
2021/05/07 02:12:21;;;;;;;3.53;1.25;;;;;;;12.14;53.05;99009.91;3521742;28;20039;-73
2021/05/07 02:14:01;;;;;;;2.90;1.60;;;;;;;12.16;52.73;99007.84;3524739;28;20112;-72
2021/05/07 02:15:42;;;;;;;3.58;1.52;;;;;;;12.15;52.90;99006.19;3525340;28;20370;-73
2021/05/07 02:17:25;;;;;;;2.10;1.50;;;;;;;12.12;52.88;99011.97;3525280;28;20039;-72
2021/05/07 02:19:06;;;;;;;2.40;1.67;;;;;;;12.11;52.93;99012.22;3525267;28;20527;-73
2021/05/07 02:20:48;;;;;;;3.42;1.48;;;;;;;12.08;53.26;99021.50;3524604;28;20055;-73
2021/05/07 02:22:30;;;;;;;3.00;1.48;;;;;;;12.01;53.17;99010.03;3522228;28;20043;-73
2021/05/07 02:24:13;;;;;;;2.25;1.38;;;;;;;12.05;53.35;99021.91;3524444;28;20150;-72
2021/05/07 02:25:54;;;;;;;2.45;1.30;;;;;;;12.06;53.11;99020.88;3521818;28;20176;-73
2021/05/07 02:27:43;;;;;;;2.13;1.23;;;;;;;12.08;53.21;99016.16;3525430;28;20035;-73
2021/05/07 02:29:24;;;;;;;1.20;0.90;;;;;;;12.06;53.12;99018.22;3524425;28;20032;-71
2021/05/07 02:31:05;;;;;;;2.72;1.00;;;;;;;12.08;53.19;99013.47;3520962;28;20553;-72
2021/05/07 02:32:47;;;;;;;3.13;1.25;;;;;;;12.14;53.18;99019.78;3522080;28;20043;-73
2021/05/07 02:34:28;;;;;;;1.70;1.03;;;;;;;12.19;53.04;99019.94;3521469;28;20127;-72
2021/05/07 02:36:09;;;;;;;7.45;1.23;;;;;;;12.17;52.90;99020.16;3521354;28;20683;-72
2021/05/07 02:37:50;;;;;;;1.48;1.38;;;;;;;12.17;53.14;99025.50;3521780;28;20047;-73
2021/05/07 02:39:31;;;;;;;9.25;1.25;;;;;;;12.12;53.24;99025.34;3521652;28;20130;-73
2021/05/07 02:41:12;;;;;;;2.15;1.27;;;;;;;12.12;53.40;99022.66;3521859;28;20081;-73
2021/05/07 02:42:56;;;;;;;4.05;1.45;;;;;;;12.09;53.18;99030.31;3510254;28;20111;-72
2021/05/07 02:44:40;;;;;;;4.88;1.30;;;;;;;12.06;53.23;99023.56;3505798;28;20101;-72
2021/05/07 02:46:21;;;;;;;4.28;1.30;;;;;;;12.04;53.29;99030.16;3522137;28;20126;-73
2021/05/07 02:48:04;;;;;;;2.42;1.17;;;;;;;12.04;53.26;99038.97;3524135;28;20622;-73
2021/05/07 02:49:47;;;;;;;1.95;0.98;;;;;;;12.03;53.36;99045.38;3524729;28;20058;-73
2021/05/07 02:51:29;;;;;;;3.15;1.45;;;;;;;12.02;53.38;99037.56;3521613;28;20043;-73
2021/05/07 02:53:12;;;;;;;1.92;1.00;;;;;;;11.98;53.66;99034.53;3525104;28;20043;-73
2021/05/07 02:54:53;;;;;;;5.85;1.73;;;;;;;11.97;53.56;99046.22;3525281;28;20575;-71
2021/05/07 02:56:34;;;;;;;1.37;1.27;;;;;;;11.97;53.68;99043.56;3525125;28;20383;-72
2021/05/07 02:58:15;;;;;;;3.13;1.17;;;;;;;11.99;53.47;99039.63;3524238;28;20292;-73
2021/05/07 02:59:56;;;;;;;2.10;1.27;;;;;;;12.00;53.54;99040.44;3524435;28;20058;-73
2021/05/07 03:01:36;;;;;;;1.83;1.40;;;;;;;11.94;53.51;99052.00;3524624;28;20043;-71
2021/05/07 03:03:17;;;;;;;3.10;1.52;;;;;;;11.91;53.74;99047.13;3525192;28;20031;-73
2021/05/07 03:04:58;;;;;;;2.25;1.25;;;;;;;11.91;53.73;99049.78;3524043;28;20043;-73
2021/05/07 03:06:40;;;;;;;2.00;1.80;;;;;;;11.85;53.64;99047.94;3524194;28;20045;-71
2021/05/07 03:08:22;;;;;;;2.40;1.10;;;;;;;11.85;53.99;99053.28;3524811;28;20134;-73
2021/05/07 03:10:03;;;;;;;;;;;;;;;11.94;53.73;99058.16;3525076;28;20092;-72
2021/05/07 03:11:44;;;;;;;1.20;1.10;;;;;;;11.91;53.75;99052.47;3524972;28;19924;-72
2021/05/07 03:13:25;;;;;;;2.08;1.55;;;;;;;11.94;53.58;99057.34;3524972;28;20482;-71
2021/05/07 03:15:06;;;;;;;2.10;1.40;;;;;;;11.90;53.63;99045.47;3524617;28;20097;-72
2021/05/07 03:16:47;;;;;;;4.97;1.45;;;;;;;11.87;53.68;99062.75;3524908;28;20101;-71
2021/05/07 03:18:28;;;;;;;1.85;1.20;;;;;;;11.83;53.68;99058.03;3525083;28;20079;-72
2021/05/07 03:20:10;;;;;;;3.33;1.42;;;;;;;11.84;53.64;99063.16;3524646;28;20126;-73
2021/05/07 03:21:50;;;;;;;1.50;1.40;;;;;;;11.84;53.71;99068.50;3523653;28;20518;-71
2021/05/07 03:23:31;;;;;;;2.47;1.08;;;;;;;11.81;53.75;99065.44;3524753;28;20134;-72
2021/05/07 03:25:13;;;;;;;2.42;1.60;;;;;;;11.76;54.03;99060.75;3524864;28;20065;-73
2021/05/07 03:26:54;;;;;;;4.22;1.67;;;;;;;11.86;53.95;99071.81;3523758;28;20176;-72
2021/05/07 03:28:37;;;;;;;1.60;1.40;;;;;;;11.95;53.69;99075.00;3523433;28;20178;-73
2021/05/07 03:30:18;;;;;;;2.72;1.40;;;;;;;12.03;53.55;99079.25;3524618;28;20051;-71
2021/05/07 03:31:58;;;;;;;1.75;1.30;;;;;;;12.08;53.29;99072.25;3524133;28;20043;-72
2021/05/07 03:33:39;;;;;;;1.65;1.55;;;;;;;12.11;53.08;99071.78;3524675;28;20055;-73
2021/05/07 03:35:20;;;;;;;2.25;1.30;;;;;;;12.16;53.09;99073.81;3524946;28;20271;-72
2021/05/07 03:37:00;;;;;;;1.27;1.15;;;;;;;12.18;52.75;99075.22;3524469;28;20051;-72
2021/05/07 03:38:42;;;;;;;2.35;1.60;;;;;;;12.20;52.85;99077.66;3524510;28;20579;-73
2021/05/07 03:40:23;;;;;;;1.45;1.25;;;;;;;12.20;52.79;99073.13;3524776;28;20042;-72
2021/05/07 03:42:04;;;;;;;3.40;1.10;;;;;;;12.29;52.67;99087.03;3524497;28;20101;-72
2021/05/07 03:43:44;;;;;;;1.45;1.30;;;;;;;12.36;52.78;99081.63;3524693;28;20142;-73
2021/05/07 03:45:25;;;;;;;1.55;1.45;;;;;;;12.41;52.55;99085.25;3524455;28;20104;-73
2021/05/07 03:47:06;;;;;;;2.53;1.40;;;;;;;12.43;52.55;99079.69;3524168;28;20528;-71
2021/05/07 03:48:47;;;;;;;8.50;4.90;;;;;;;12.48;52.51;99079.84;3524570;28;20031;-73
2021/05/07 03:50:28;;;;;;;5.78;2.80;;;;;;;12.55;52.40;99082.47;3524350;28;20035;-74
2021/05/07 03:52:09;;;;;;;1.73;1.48;;;;;;;12.61;52.16;99085.03;3524376;28;20051;-73
2021/05/07 03:53:49;;;;;;;2.47;1.38;;;;;;;12.70;51.99;99092.78;3523282;28;20043;-72
2021/05/07 03:55:30;;;;;;;2.88;1.45;;;;;;;12.74;51.84;99091.28;3506551;28;20434;-73
2021/05/07 03:57:11;;;;;;;1.98;1.88;;;;;;;12.75;51.79;99085.75;3521754;28;20039;-72
2021/05/07 03:58:52;;;;;;;1.63;1.20;;;;;;;12.77;51.74;99080.16;3525466;28;20042;-72
2021/05/07 04:00:33;;;;;;;3.22;1.20;;;;;;;12.85;51.48;99090.53;3520921;28;20053;-72
2021/05/07 04:02:14;;;;;;;2.45;1.25;;;;;;;12.85;51.37;99087.88;3524133;28;20050;-72
2021/05/07 04:03:55;;;;;;;1.95;1.52;;;;;;;12.85;51.45;99090.53;3524262;28;20042;-73
2021/05/07 04:05:36;;;;;;;2.10;1.20;;;;;;;12.91;51.62;99104.88;3522619;28;20047;-72
2021/05/07 04:07:17;;;;;;;1.13;1.00;;;;;;;12.93;51.34;99098.25;3523796;28;20071;-71
2021/05/07 04:09:11;;;;;;;2.30;1.23;;;;;;;12.91;51.18;99092.34;3524534;28;20115;-73
2021/05/07 04:10:58;;;;;;;1.13;1.02;;;;;;;12.93;51.25;99095.56;3523692;28;20047;-73
2021/05/07 04:14:28;;;;;;;1.33;0.90;;;;;;;13.11;50.94;99105.44;3523976;28;20043;-73
2021/05/07 04:16:09;;;;;;;1.45;1.35;;;;;;;13.06;50.93;99089.25;3524519;28;20418;-72
2021/05/07 04:17:50;;;;;;;1.90;1.13;;;;;;;13.24;50.72;99101.78;3524312;28;20043;-73
2021/05/07 04:19:31;;;;;;;4.78;1.35;;;;;;;13.32;50.52;99109.53;3524481;28;20039;-72
2021/05/07 04:21:12;;;;;;;2.30;1.50;;;;;;;13.34;50.58;99110.13;3524250;28;20383;-73
2021/05/07 04:22:52;;;;;;;2.15;1.15;;;;;;;13.36;50.38;99097.31;3524332;28;20077;-72
2021/05/07 04:24:33;;;;;;;2.00;1.30;;;;;;;13.41;50.18;99104.69;3523351;28;20043;-72
2021/05/07 04:26:14;;;;;;;3.10;1.38;;;;;;;13.41;50.34;99102.00;3523137;28;20039;-73
2021/05/07 04:27:54;;;;;;;1.73;1.40;;;;;;;13.44;50.34;99102.34;3523907;28;20450;-73
2021/05/07 04:29:35;;;;;;;2.75;1.70;;;;;;;13.41;50.24;99105.50;3524252;28;20035;-72
2021/05/07 04:31:16;;;;;;;8.10;1.70;;;;;;;13.41;50.33;99105.50;3524095;28;20040;-73
2021/05/07 04:32:56;;;;;;;3.97;1.50;;;;;;;13.46;50.29;99119.00;3524130;28;20501;-72
2021/05/07 04:34:37;;;;;;;2.53;1.50;;;;;;;13.57;50.05;99116.59;3522861;28;20036;-72
2021/05/07 04:36:18;;;;;;;5.88;1.85;;;;;;;13.61;49.91;99118.59;3524224;28;20129;-72
2021/05/07 04:37:58;;;;;;;4.43;1.60;;;;;;;13.64;49.85;99114.66;3524226;28;20078;-72
2021/05/07 04:39:39;;;;;;;2.20;1.33;;;;;;;13.75;49.88;99121.88;3524442;28;20039;-72
2021/05/07 04:41:20;;;;;;;2.00;1.60;;;;;;;13.82;49.48;99117.25;3526811;28;20610;-71
2021/05/07 04:43:01;;;;;;;5.22;1.77;;;;;;;13.90;49.44;99114.22;3526962;28;20048;-73
2021/05/07 04:44:42;;;;;;;3.33;1.60;;;;;;;13.93;49.34;99113.78;3526391;28;20509;-73
2021/05/07 04:46:23;;;;;;;1.35;1.23;;;;;;;13.95;49.14;99117.03;3526892;28;20051;-73
2021/05/07 04:48:11;;;;;;;4.97;1.60;;;;;;;13.99;49.19;99121.94;3526500;28;20056;-72
2021/05/07 04:49:52;;;;;;;1.83;1.67;;;;;;;13.99;48.96;99116.56;3525688;28;20035;-73
2021/05/07 04:51:32;;;;;;;3.38;1.80;;;;;;;14.02;49.14;99111.59;3526494;28;20517;-74
2021/05/07 04:53:13;;;;;;;3.65;1.70;;;;;;;14.13;48.88;99116.13;3526804;28;20130;-73
2021/05/07 04:54:54;;;;;;;1.75;1.48;;;;;;;14.13;48.81;99113.44;3526288;28;20122;-72
2021/05/07 04:56:34;;;;;;;6.60;1.83;;;;;;;14.21;48.68;99124.88;3526674;28;20047;-73
2021/05/07 04:58:15;;;;;;;2.22;1.40;;;;;;;14.26;48.33;99133.84;3526712;28;20039;-72
2021/05/07 04:59:56;;;;;;;3.17;1.13;;;;;;;14.32;48.23;99116.84;3526744;28;20520;-72
2021/05/07 05:01:37;;;;;;;2.42;1.13;;;;;;;14.32;47.87;99126.75;3526653;27;20046;-73
2021/05/07 05:03:18;;;;;;;2.25;1.83;;;;;;;14.23;47.95;99122.78;3526957;28;20053;-73
2021/05/07 05:04:58;;;;;;;4.07;1.30;;;;;;;14.21;48.20;99127.56;3526737;28;20048;-74
2021/05/07 05:06:39;;;;;;;3.17;1.20;;;;;;;14.16;48.30;99107.63;3526345;28;20112;-73
2021/05/07 05:08:24;;;;;;;1.85;1.70;;;;;;;14.32;47.94;99124.88;3526355;28;20059;-75
2021/05/07 05:10:05;;;;;;;3.13;1.95;;;;;;;14.33;47.78;99128.41;3525833;28;20072;-73
2021/05/07 05:11:46;;;;;;;3.38;1.75;;;;;;;14.29;47.55;99128.03;3526654;28;20055;-71
2021/05/07 05:13:27;;;;;;;4.57;1.20;;;;;;;14.31;47.85;99128.63;3526500;28;20462;-73
2021/05/07 05:15:09;;;;;;;1.83;1.60;;;;;;;14.46;47.85;99130.84;3526174;28;20075;-73
2021/05/07 05:16:49;;;;;;;2.05;1.42;;;;;;;14.61;47.54;99127.69;3526253;28;20573;-73
2021/05/07 05:18:32;;;;;;;1.58;1.45;;;;;;;14.71;47.28;99129.78;3526455;28;20096;-72
2021/05/07 05:20:13;;;;;;;3.70;1.73;;;;;;;14.79;47.11;99130.25;3526335;27;20043;-71
2021/05/07 05:21:54;;;;;;;4.43;1.42;;;;;;;14.89;46.98;99126.97;3526416;28;20181;-73
2021/05/07 05:23:35;;;;;;;3.28;1.58;;;;;;;14.99;46.67;99131.72;3526315;28;20039;-72
2021/05/07 05:25:16;;;;;;;1.63;1.50;;;;;;;15.12;46.67;99131.44;3526117;27;20039;-71
2021/05/07 05:26:58;;;;;;;3.72;1.45;;;;;;;15.21;46.31;99131.91;3525092;28;20072;-72
2021/05/07 05:28:39;;;;;;;2.78;1.38;;;;;;;15.34;46.52;99120.06;3525656;28;20047;-71
2021/05/07 05:30:21;;;;;;;2.55;1.25;;;;;;;15.51;46.14;99128.16;3525640;28;20538;-74
2021/05/07 05:32:03;;;;;;;1.20;1.10;;;;;;;15.54;45.71;99130.38;3526172;28;20091;-73
2021/05/07 05:33:43;;;;;;;2.72;1.20;;;;;;;15.55;45.56;99129.31;3526120;28;20494;-74
2021/05/07 05:35:24;;;;;;;2.00;0.90;;;;;;;15.58;45.65;99129.66;3525126;28;20045;-72
2021/05/07 05:37:05;;;;;;;1.10;1.00;;;;;;;15.63;45.58;99132.44;3525654;28;20109;-73
2021/05/07 05:38:45;;;;;;;3.28;1.20;;;;;;;15.68;45.43;99134.41;3525254;28;20032;-73
2021/05/07 05:40:26;;;;;;;2.67;1.05;;;;;;;15.74;45.35;99129.94;3525833;28;20039;-72
2021/05/07 05:42:07;;;;;;;2.22;0.93;;;;;;;15.87;45.17;99129.63;3525856;28;20410;-73
2021/05/07 05:43:48;;;;;;;3.28;0.95;;;;;;;15.88;44.83;99131.28;3524878;28;20044;-74
2021/05/07 05:45:29;;;;;;;1.08;0.75;;;;;;;15.89;44.87;99138.28;3525824;28;20039;-73
2021/05/07 05:47:10;;;;;;;2.60;1.25;;;;;;;15.93;44.70;99134.06;3525714;28;20406;-73
2021/05/07 05:48:51;;;;;;;4.57;1.30;;;;;;;16.01;44.29;99127.47;3526211;28;20051;-74
2021/05/07 05:50:32;;;;;;;1.27;0.88;;;;;;;16.09;44.31;99135.94;3525930;28;20443;-74
2021/05/07 05:52:12;;;;;;;1.80;0.90;;;;;;;16.16;43.80;99129.56;3523848;28;20478;-74
2021/05/07 05:53:53;;;;;;;5.10;1.00;;;;;;;16.20;43.65;99120.78;3525729;28;20031;-73
2021/05/07 05:55:36;;;;;;;2.33;0.75;;;;;;;16.09;43.08;99124.38;3525413;28;20063;-73
2021/05/07 05:57:16;;;;;;;2.50;0.77;;;;;;;15.95;43.24;99126.53;3525872;28;20478;-73
2021/05/07 05:58:57;;;;;;;4.00;1.30;;;;;;;15.88;43.30;99131.28;3526773;28;20054;-74
2021/05/07 06:00:38;;;;;;;1.17;0.90;;;;;;;15.89;43.28;99138.28;3526311;28;20608;-74
2021/05/07 06:02:19;;;;;;;2.25;1.00;;;;;;;15.95;43.24;99133.81;3525921;28;20065;-74
2021/05/07 06:04:00;;;;;;;2.60;0.73;;;;;;;16.04;43.13;99133.16;3526141;28;20061;-74
2021/05/07 06:05:41;;;;;;;2.85;0.90;;;;;;;16.20;42.89;99142.28;3525918;28;20043;-73
2021/05/07 06:07:21;;;;;;;1.30;0.70;;;;;;;16.24;42.51;99135.38;3525691;28;20059;-73
2021/05/07 06:09:02;;;;;;;2.80;0.80;;;;;;;16.32;42.55;99136.84;3525618;28;20039;-73
2021/05/07 06:10:43;;;;;;;2.55;0.80;;;;;;;16.40;42.25;99131.03;3525598;28;20196;-74
2021/05/07 06:12:24;;;;;;;2.35;0.75;;;;;;;16.49;42.07;99143.00;3525771;28;20040;-73
2021/05/07 06:14:04;;;;;;;9.00;0.80;;;;;;;16.60;41.91;99143.13;3525587;28;20077;-73
2021/05/07 06:15:45;;;;;;;3.13;0.90;;;;;;;16.73;41.67;99145.50;3525723;28;20065;-72
2021/05/07 06:17:29;;;;;;;0.80;0.63;;;;;;;16.91;41.45;99141.69;3525554;28;20079;-74
2021/05/07 06:19:10;;;;;;;1.17;0.52;;;;;;;17.05;40.93;99144.84;3525537;28;20088;-73
2021/05/07 06:20:51;;;;;;;3.35;1.50;;;;;;;17.18;40.73;99136.41;3525426;28;20510;-73
2021/05/07 06:22:33;;;;;;;0.60;0.60;;;;;;;17.36;40.41;99146.03;3525613;28;20109;-73
2021/05/07 06:24:15;;;;;;;2.90;0.63;;;;;;;17.53;39.90;99148.63;3525767;28;20043;-73
2021/05/07 06:25:55;;;;;;;0.93;0.60;;;;;;;17.74;40.17;99145.09;3524848;28;20184;-72
2021/05/07 06:27:36;;;;;;;1.58;0.77;;;;;;;17.93;39.81;99144.75;3525311;28;20088;-72
2021/05/07 06:29:17;;;;;;;0.98;0.65;;;;;;;18.20;39.75;99150.09;3525504;28;20075;-72
2021/05/07 06:30:59;;;;;;;2.05;0.70;;;;;;;18.43;39.35;99144.34;3524356;28;20058;-72
2021/05/07 06:32:40;;;;;;;1.73;0.80;;;;;;;18.65;38.96;99149.59;3525137;28;20043;-72
2021/05/07 06:34:22;;;;;;;2.58;0.90;;;;;;;18.85;38.71;99146.25;3525525;28;20501;-72
2021/05/07 06:36:02;;;;;;;7.28;1.98;;;;;;;19.07;39.00;99150.66;3523952;28;20047;-73
2021/05/07 06:37:44;;;;;;;4.72;1.10;;;;;;;19.28;38.54;99151.53;3525142;28;20096;-73
2021/05/07 06:39:29;;;;;;;2.95;0.70;;;;;;;19.41;38.42;99151.03;3525319;28;20036;-72
2021/05/07 06:41:11;;;;;;;4.82;1.30;;;;;;;19.61;38.56;99164.63;3524203;28;20046;-73
2021/05/07 06:42:52;;;;;;;3.47;0.60;;;;;;;19.79;37.93;99154.41;3525289;28;20051;-72
2021/05/07 06:44:33;;;;;;;2.50;0.90;;;;;;;19.90;37.29;99155.25;3524955;28;20093;-74
2021/05/07 06:46:14;;;;;;;2.90;0.85;;;;;;;19.96;37.17;99157.69;3525146;28;20391;-73
2021/05/07 06:47:54;;;;;;;3.03;0.93;;;;;;;20.11;37.21;99166.88;3525160;28;20043;-73
2021/05/07 06:49:35;;;;;;;5.38;0.75;;;;;;;20.30;37.04;99159.84;3509801;28;20120;-74
2021/05/07 06:51:16;;;;;;;2.10;0.80;;;;;;;20.38;36.74;99163.91;3522193;28;20042;-73
2021/05/07 06:52:56;;;;;;;1.65;0.85;;;;;;;20.20;36.48;99174.19;3525049;28;20095;-73
2021/05/07 06:54:37;;;;;;;5.53;1.02;;;;;;;19.87;36.39;99167.41;3524412;28;20614;-73
2021/05/07 06:56:21;;;;;;;1.75;0.88;;;;;;;19.72;37.14;99167.38;3525318;28;20039;-73
2021/05/07 06:58:01;;;;;;;3.53;1.10;;;;;;;19.72;37.10;99172.78;3526300;28;20087;-73
2021/05/07 06:59:46;;;;;;;2.20;1.00;;;;;;;19.79;36.73;99178.75;3526433;28;20044;-73
2021/05/07 07:01:27;;;;;;;2.75;0.77;;;;;;;19.91;36.53;99171.22;3526554;28;20048;-73
2021/05/07 07:03:07;;;;;;;2.17;1.00;;;;;;;20.04;36.76;99165.25;3527265;28;20070;-72
2021/05/07 07:04:48;;;;;;;1.07;0.57;;;;;;;20.24;36.24;99177.19;3525884;28;20521;-72
2021/05/07 07:06:29;;;;;;;2.17;0.80;;;;;;;20.30;36.53;99178.00;3526857;28;20071;-74
2021/05/07 07:08:10;;;;;;;1.17;0.50;;;;;;;20.31;36.25;99180.41;3526508;28;20079;-74
2021/05/07 07:09:50;;;;;;;3.17;0.97;;;;;;;20.22;36.40;99179.34;3525083;28;20043;-72
2021/05/07 07:11:31;;;;;;;1.67;0.90;;;;;;;20.13;36.12;99180.97;3523873;28;20104;-73
2021/05/07 07:13:12;;;;;;;4.73;1.20;;;;;;;19.99;36.49;99186.91;3524385;28;20126;-73
2021/05/07 07:14:52;;;;;;;7.57;1.30;;;;;;;19.97;35.93;99197.16;3524967;28;20471;-74
2021/05/07 07:16:33;;;;;;;3.53;0.95;;;;;;;20.08;36.32;99189.06;3524478;28;20043;-74
2021/05/07 07:18:20;;;;;;;4.60;0.68;;;;;;;20.21;35.46;99192.06;3524751;28;20039;-74
2021/05/07 07:20:01;;;;;;;2.08;0.77;;;;;;;20.34;35.33;99198.00;3523828;28;20061;-74
2021/05/07 07:21:42;;;;;;;2.10;0.70;;;;;;;20.18;35.17;99189.06;3524603;28;20549;-73
2021/05/07 07:23:23;;;;;;;1.02;0.70;;;;;;;19.90;35.18;99193.09;3524647;28;20044;-73
2021/05/07 07:25:04;;;;;;;2.10;0.80;;;;;;;19.57;35.61;99198.69;3524362;28;20036;-73
2021/05/07 07:26:45;;;;;;;;;;;;;;;19.66;36.10;99190.06;3525051;28;20498;-73
2021/05/07 07:28:26;;;;;;;2.25;0.95;;;;;;;19.65;35.89;99194.66;3524544;28;19972;-73
2021/05/07 07:30:07;;;;;;;2.58;0.77;;;;;;;19.73;35.79;99188.75;3524398;28;20051;-72
2021/05/07 07:31:48;;;;;;;1.50;1.00;;;;;;;19.77;35.15;99194.44;3524616;28;20040;-74
2021/05/07 07:33:29;;;;;;;1.20;0.70;;;;;;;19.69;35.05;99190.34;3524575;28;20302;-73
2021/05/07 07:35:10;;;;;;;2.33;1.00;;;;;;;19.81;35.19;99192.81;3523993;28;20036;-72
2021/05/07 07:36:51;;;;;;;2.95;0.60;;;;;;;19.99;34.97;99196.91;3524479;28;20044;-73
2021/05/07 07:38:32;;;;;;;6.55;0.88;;;;;;;20.03;34.33;99196.13;3524348;28;20047;-75
2021/05/07 07:40:13;;;;;;;0.98;0.70;;;;;;;20.09;34.87;99193.41;3524610;28;20403;-74
2021/05/07 07:41:54;;;;;;;2.55;0.82;;;;;;;20.22;34.65;99192.88;3523265;28;20447;-74
2021/05/07 07:43:34;;;;;;;1.35;0.77;;;;;;;20.44;34.30;99201.53;3524279;28;20124;-73
2021/05/07 07:45:15;;;;;;;3.50;0.63;;;;;;;20.60;34.44;99196.13;3524777;28;20031;-73
2021/05/07 07:46:56;;;;;;;0.57;0.40;;;;;;;20.67;34.39;99196.66;3523096;28;20046;-73
2021/05/07 07:48:37;;;;;;;8.20;1.00;;;;;;;20.83;34.10;99198.28;3523947;28;20044;-74
2021/05/07 07:50:18;;;;;;;1.53;0.77;;;;;;;20.87;33.62;99204.75;3523273;28;20040;-75
2021/05/07 07:51:59;;;;;;;2.03;0.60;;;;;;;20.92;33.97;99201.22;3520408;28;20044;-74
2021/05/07 07:53:40;;;;;;;2.50;0.90;;;;;;;20.91;33.88;99192.28;3523963;28;20040;-74
2021/05/07 07:55:21;;;;;;;4.68;0.60;;;;;;;21.06;33.95;99201.44;3522585;28;20418;-73
2021/05/07 07:57:02;;;;;;;0.80;0.63;;;;;;;21.15;33.58;99205.22;3524035;28;20068;-74
2021/05/07 07:58:42;;;;;;;0.70;0.60;;;;;;;21.18;33.20;99207.38;3524363;28;20120;-73
2021/05/07 08:00:24;;;;;;;1.80;0.50;;;;;;;21.12;33.20;99198.47;3524152;28;20134;-73